Time;durP1;ratioP1;P1;durP2;ratioP2;P2;SDS_P1;SDS_P2;PMS_P1;PMS_P2;Temp;Humidity;BMP_temperature;BMP_pressure;BME280_temperature;BME280_humidity;BME280_pressure;Samples;Min_cycle;Max_cycle;Signal;HPM_P1;HPM_P2
2021/10/28 00:12:13;;;;;;;;;;;19.70;57.70;;;;;;5006706;28;19925;-53
2021/10/28 00:12:27;;;;;;;;;;;19.70;57.70;;;;;;4996133;28;19933;-54
2021/10/28 00:14:56;;;;;;;;;;;19.70;57.70;;;;;;4996373;28;19948;-53
2021/10/28 00:20:06;;;;;;;;;;;19.70;57.70;;;;;;4996100;28;19933;-55
2021/10/28 00:22:34;;;;;;;;;;;19.70;57.70;;;;;;5006809;28;19926;-55
2021/10/28 00:25:01;;;;;;;;;;;19.70;57.70;;;;;;5012079;28;19933;-55
2021/10/28 00:27:28;;;;;;;;;;;19.70;57.70;;;;;;5012112;28;19925;-52
2021/10/28 00:29:55;;;;;;;;;;;19.70;57.70;;;;;;5012040;28;19926;-52
2021/10/28 00:32:22;;;;;;;;;;;19.70;57.70;;;;;;5012211;28;20296;-51
2021/10/28 00:34:49;;;;;;;;;;;19.70;57.70;;;;;;5012750;28;19926;-54
2021/10/28 00:37:16;;;;;;;;;;;19.70;57.70;;;;;;5027306;28;19925;-50
2021/10/28 00:39:44;;;;;;;;;;;19.70;57.70;;;;;;5011965;28;20028;-54
2021/10/28 00:42:13;;;;;;;;;;;19.70;57.70;;;;;;5010836;28;19931;-54
2021/10/28 00:44:40;;;;;;;;;;;19.70;57.70;;;;;;5011107;28;19995;-55
2021/10/28 00:47:08;;;;;;;;;;;19.70;57.70;;;;;;5011843;28;19932;-52
2021/10/28 00:49:35;;;;;;;;;;;19.70;57.70;;;;;;5010768;28;20382;-53
2021/10/28 00:52:03;;;;;;;;;;;19.70;57.70;;;;;;5011986;28;19932;-54
2021/10/28 00:54:30;;;;;;;;;;;19.70;58.30;;;;;;5010713;28;19960;-53
2021/10/28 00:56:57;;;;;;;;;;;19.70;57.70;;;;;;5011988;28;19948;-53
2021/10/28 00:59:24;;;;;;;;;;;19.70;57.70;;;;;;4996891;28;20041;-53
2021/10/28 01:01:52;;;;;;;;;;;19.70;57.70;;;;;;5014637;28;19961;-51
2021/10/28 01:04:19;;;;;;;;;;;19.70;57.70;;;;;;5015561;28;20028;-54
2021/10/28 01:06:47;;;;;;;;;;;19.70;57.70;;;;;;5014569;28;19932;-54
2021/10/28 01:09:14;;;;;;;;;;;19.70;57.70;;;;;;5015484;28;20295;-55
2021/10/28 01:11:41;;;;;;;;;;;19.70;57.70;;;;;;5014166;28;20000;-54
2021/10/28 01:14:08;;;;;;;;;;;19.70;57.70;;;;;;5001026;28;19972;-54
2021/10/28 01:16:35;;;;;;;;;;;19.70;57.70;;;;;;5007335;28;19926;-52
2021/10/28 01:19:02;;;;;;;;;;;19.70;57.70;;;;;;5002450;28;19936;-51
2021/10/28 01:21:29;;;;;;;;;;;19.70;57.70;;;;;;4999171;28;19949;-54
2021/10/28 01:23:56;;;;;;;;;;;19.70;57.70;;;;;;4998684;28;19926;-53
2021/10/28 01:26:23;;;;;;;;;;;19.70;57.70;;;;;;4997746;28;19933;-51
2021/10/28 01:28:59;;;;;;;;;;;19.70;57.70;;;;;;5007295;28;19983;-53
2021/10/28 01:31:28;;;;;;;;;;;19.70;57.60;;;;;;5006678;28;20297;-50
2021/10/28 01:33:56;;;;;;;;;;;19.70;57.70;;;;;;5006551;28;19926;-53
2021/10/28 01:36:24;;;;;;;;;;;19.70;57.70;;;;;;5013573;28;19925;-54
2021/10/28 01:38:52;;;;;;;;;;;19.70;57.70;;;;;;5013452;28;19932;-52
2021/10/28 01:41:19;;;;;;;;;;;19.70;57.60;;;;;;5013786;28;20263;-50
2021/10/28 01:43:46;;;;;;;;;;;19.70;57.60;;;;;;5013833;28;20020;-51
2021/10/28 01:46:14;;;;;;;;;;;19.70;57.70;;;;;;5014478;28;19932;-52
2021/10/28 01:48:41;;;;;;;;;;;19.70;57.60;;;;;;5013574;28;19925;-53
2021/10/28 01:51:09;;;;;;;;;;;19.70;57.70;;;;;;5014388;28;19929;-51
2021/10/28 01:53:37;;;;;;;;;;;19.70;57.70;;;;;;5012910;28;19925;-51
2021/10/28 01:56:06;;;;;;;;;;;19.70;57.60;;;;;;4998750;28;19925;-50
2021/10/28 01:58:33;;;;;;;;;;;19.70;57.60;;;;;;5014322;28;19925;-48
2021/10/28 02:01:01;;;;;;;;;;;19.70;57.60;;;;;;5014206;28;19926;-50
2021/10/28 02:03:28;;;;;;;;;;;19.70;57.60;;;;;;5013600;28;19991;-53
2021/10/28 02:05:56;;;;;;;;;;;19.70;57.70;;;;;;5014642;28;19926;-49
2021/10/28 02:08:24;;;;;;;;;;;19.70;57.70;;;;;;4997360;28;20372;-51
2021/10/28 02:10:52;;;;;;;;;;;19.70;57.60;;;;;;4995723;28;19926;-47
2021/10/28 02:13:19;;;;;;;;;;;19.70;57.60;;;;;;5013201;28;19934;-52
2021/10/28 02:15:46;;;;;;;;;;;19.70;57.60;;;;;;5001329;28;20378;-51
2021/10/28 02:18:13;;;;;;;;;;;19.70;57.60;;;;;;5000430;28;19984;-48
2021/10/28 02:20:41;;;;;;;;;;;19.70;57.60;;;;;;4997804;28;20374;-49
2021/10/28 02:23:08;;;;;;;;;;;19.70;57.60;;;;;;5009517;28;19968;-51
2021/10/28 02:25:36;;;;;;;;;;;19.70;57.60;;;;;;5012593;28;19930;-51
2021/10/28 02:28:03;;;;;;;;;;;19.70;57.60;;;;;;5013382;28;20352;-49
2021/10/28 02:30:32;;;;;;;;;;;19.70;57.60;;;;;;5012433;28;19932;-49
2021/10/28 02:32:59;;;;;;;;;;;19.70;57.60;;;;;;5013561;28;19926;-49
2021/10/28 02:35:27;;;;;;;;;;;19.70;57.60;;;;;;5013829;28;19925;-49
2021/10/28 02:37:54;;;;;;;;;;;19.70;57.70;;;;;;5013727;28;19925;-49
2021/10/28 02:40:22;;;;;;;;;;;19.70;57.60;;;;;;5013485;28;19925;-48
2021/10/28 02:42:49;;;;;;;;;;;19.70;57.60;;;;;;5013498;28;19926;-52
2021/10/28 02:45:16;;;;;;;;;;;19.70;57.70;;;;;;5013514;28;19925;-49
2021/10/28 02:47:43;;;;;;;;;;;19.70;57.70;;;;;;5010418;28;19936;-48
2021/10/28 02:50:11;;;;;;;;;;;19.70;57.60;;;;;;4997483;28;19948;-49
2021/10/28 02:52:38;;;;;;;;;;;19.70;57.60;;;;;;4998149;28;19964;-50
2021/10/28 02:55:05;;;;;;;;;;;19.70;57.70;;;;;;5013003;28;19932;-49
2021/10/28 02:57:32;;;;;;;;;;;19.70;57.60;;;;;;4996565;28;19975;-50
2021/10/28 03:00:00;;;;;;;;;;;19.70;57.70;;;;;;4995874;28;19941;-53
2021/10/28 03:02:27;;;;;;;;;;;19.70;57.70;;;;;;5013519;28;19925;-49
2021/10/28 03:04:55;;;;;;;;;;;19.70;57.70;;;;;;5013469;28;19925;-52
2021/10/28 03:07:22;;;;;;;;;;;19.70;57.70;;;;;;4997095;28;19933;-52
2021/10/28 03:09:49;;;;;;;;;;;19.70;57.70;;;;;;4997147;28;19926;-55
2021/10/28 03:12:17;;;;;;;;;;;19.70;57.70;;;;;;5011686;28;19925;-53
2021/10/28 03:14:51;;;;;;;;;;;19.70;57.70;;;;;;5012686;28;19938;-55
2021/10/28 03:28:00;;;;;;;;;;;19.70;57.70;;;;;;5011537;28;20258;-53
2021/10/28 03:30:28;;;;;;;;;;;19.70;57.70;;;;;;5012910;28;19932;-54
2021/10/28 03:32:55;;;;;;;;;;;19.70;57.70;;;;;;5011497;28;19932;-50
2021/10/28 03:35:22;;;;;;;;;;;19.70;57.70;;;;;;5011976;28;19948;-53
2021/10/28 03:37:55;;;;;;;;;;;19.70;57.70;;;;;;5011645;28;19929;-52
2021/10/28 04:08:00;;;;;;;;;;;19.70;57.70;;;;;;4996154;28;19932;-50
2021/10/28 04:18:53;;;;;;;;;;;19.70;57.70;;;;;;5016852;28;19971;-55
2021/10/28 04:21:39;;;;;;;;;;;19.70;57.70;;;;;;5015170;28;20001;-52
2021/10/28 04:28:53;;;;;;;;;;;19.70;57.70;;;;;;5011041;28;19974;-49
2021/10/28 04:29:53;;;;;;;;;;;19.70;57.70;;;;;;4995266;28;19929;-52
2021/10/28 04:32:20;;;;;;;;;;;19.60;57.60;;;;;;5011226;28;20032;-53
2021/10/28 04:34:47;;;;;;;;;;;19.60;57.60;;;;;;5015088;28;19925;-52
2021/10/28 04:37:14;;;;;;;;;;;19.70;57.70;;;;;;5016434;28;19925;-54
2021/10/28 04:39:42;;;;;;;;;;;19.70;57.70;;;;;;5015919;28;19976;-54
2021/10/28 04:42:09;;;;;;;;;;;19.70;57.70;;;;;;5015641;28;20396;-52
2021/10/28 04:44:37;;;;;;;;;;;19.70;57.70;;;;;;5001997;28;20333;-53
2021/10/28 04:47:04;;;;;;;;;;;19.60;57.60;;;;;;4999651;28;19926;-55
2021/10/28 04:49:32;;;;;;;;;;;19.60;57.60;;;;;;4999685;28;20294;-55
2021/10/28 04:51:59;;;;;;;;;;;19.70;57.70;;;;;;5009946;28;19925;-55
2021/10/28 04:54:27;;;;;;;;;;;19.60;57.60;;;;;;5015616;28;19925;-54
2021/10/28 04:56:54;;;;;;;;;;;19.70;57.70;;;;;;5029770;28;19948;-52
2021/10/28 04:59:22;;;;;;;;;;;19.60;57.60;;;;;;5015305;28;19926;-51
2021/10/28 05:01:51;;;;;;;;;;;19.60;57.60;;;;;;5014709;28;20394;-53
2021/10/28 05:04:18;;;;;;;;;;;19.70;57.70;;;;;;5006849;28;20349;-55
2021/10/28 05:06:45;;;;;;;;;;;19.60;57.60;;;;;;5014988;28;19996;-55
2021/10/28 05:09:15;;;;;;;;;;;19.70;57.70;;;;;;5004530;28;19925;-53
2021/10/28 05:11:44;;;;;;;;;;;19.60;57.60;;;;;;5015241;28;19926;-50
2021/10/28 05:14:11;;;;;;;;;;;19.60;57.60;;;;;;5014476;28;19926;-52
2021/10/28 05:16:39;;;;;;;;;;;19.60;57.60;;;;;;5013821;28;19933;-49
2021/10/28 05:19:06;;;;;;;;;;;19.60;57.60;;;;;;5001545;28;20017;-51
2021/10/28 05:21:33;;;;;;;;;;;19.70;57.70;;;;;;5013569;28;20024;-53
2021/10/28 05:24:00;;;;;;;;;;;19.60;57.60;;;;;;4999338;28;19934;-52
2021/10/28 05:26:27;;;;;;;;;;;19.70;57.70;;;;;;5015247;28;19925;-50
2021/10/28 05:28:54;;;;;;;;;;;19.70;57.70;;;;;;5014677;28;19926;-51
2021/10/28 05:31:22;;;;;;;;;;;19.70;57.70;;;;;;5014928;28;19926;-52
2021/10/28 05:33:49;;;;;;;;;;;19.70;57.70;;;;;;5014423;28;19925;-53
2021/10/28 05:36:16;;;;;;;;;;;19.70;57.70;;;;;;5015351;28;20336;-52
2021/10/28 05:38:43;;;;;;;;;;;19.70;57.70;;;;;;5012524;28;19929;-55
2021/10/28 05:41:10;;;;;;;;;;;19.60;57.60;;;;;;5015082;28;19932;-52
2021/10/28 05:43:37;;;;;;;;;;;19.60;57.50;;;;;;5000590;28;19926;-50
2021/10/28 05:46:05;;;;;;;;;;;19.70;57.60;;;;;;5011110;28;19931;-48
2021/10/28 05:48:32;;;;;;;;;;;19.60;57.50;;;;;;5002289;28;19980;-51
2021/10/28 05:51:00;;;;;;;;;;;19.70;57.60;;;;;;5009646;28;19926;-50
2021/10/28 05:53:28;;;;;;;;;;;19.70;57.60;;;;;;5012907;28;19925;-55
2021/10/28 05:55:56;;;;;;;;;;;19.70;57.60;;;;;;5014541;28;19933;-53
2021/10/28 05:58:23;;;;;;;;;;;19.70;57.60;;;;;;5005800;28;19926;-54
2021/10/28 06:00:50;;;;;;;;;;;19.70;57.60;;;;;;5004829;28;19932;-54
2021/10/28 06:03:18;;;;;;;;;;;19.70;57.60;;;;;;5013033;28;19926;-51
2021/10/28 06:05:45;;;;;;;;;;;19.70;57.60;;;;;;5014043;28;20389;-55
2021/10/28 06:08:12;;;;;;;;;;;19.70;57.60;;;;;;5014258;28;19925;-50
2021/10/28 06:10:39;;;;;;;;;;;19.70;57.60;;;;;;5012812;28;19926;-52
2021/10/28 06:13:07;;;;;;;;;;;19.70;57.50;;;;;;5014918;28;19925;-50
2021/10/28 06:15:36;;;;;;;;;;;19.70;57.60;;;;;;5014128;28;19925;-53
2021/10/28 06:20:40;;;;;;;;;;;19.70;57.50;;;;;;5011730;28;19932;-52
2021/10/28 06:23:07;;;;;;;;;;;19.70;57.50;;;;;;4997783;28;19925;-47
2021/10/28 06:25:36;;;;;;;;;;;19.70;57.50;;;;;;4997972;28;19930;-51
2021/10/28 06:28:06;;;;;;;;;;;19.70;57.50;;;;;;4997628;28;19932;-52
2021/10/28 06:30:33;;;;;;;;;;;19.70;57.50;;;;;;4996904;28;19926;-52
2021/10/28 06:33:09;;;;;;;;;;;19.70;57.50;;;;;;4996593;28;20393;-54
2021/10/28 06:35:37;;;;;;;;;;;19.70;57.40;;;;;;4996285;28;19926;-53
2021/10/28 06:38:05;;;;;;;;;;;19.70;57.40;;;;;;5013675;28;19930;-53
2021/10/28 06:40:32;;;;;;;;;;;19.70;57.40;;;;;;5012637;28;19926;-55
2021/10/28 06:42:59;;;;;;;;;;;19.70;57.30;;;;;;5013571;28;19929;-55
2021/10/28 06:45:26;;;;;;;;;;;19.80;57.40;;;;;;5013700;28;19991;-52
2021/10/28 06:47:55;;;;;;;;;;;19.80;57.40;;;;;;4998672;28;19934;-51
2021/10/28 06:50:27;;;;;;;;;;;19.80;57.40;;;;;;5011133;28;20373;-52
2021/10/28 06:52:58;;;;;;;;;;;19.80;57.30;;;;;;5013275;28;19930;-51
2021/10/28 06:55:37;;;;;;;;;;;19.70;57.30;;;;;;5012942;28;19932;-51
2021/10/28 07:03:31;;;;;;;;;;;19.70;57.40;;;;;;5011769;28;19925;-55
2021/10/28 07:06:21;;;;;;;;;;;19.80;57.30;;;;;;5012288;28;20005;-52
2021/10/28 07:08:49;;;;;;;;;;;19.80;57.20;;;;;;5010972;28;19925;-55
2021/10/28 07:11:25;;;;;;;;;;;19.80;57.20;;;;;;5013170;28;19925;-55
2021/10/28 07:13:53;;;;;;;;;;;19.80;57.20;;;;;;5012984;28;19926;-54
2021/10/28 07:19:14;;;;;;;;;;;19.80;57.10;;;;;;5010864;28;20448;-55
2021/10/28 07:22:09;;;;;;;;;;;19.80;57.10;;;;;;5012941;28;19926;-53
2021/10/28 07:33:17;;;;;;;;;;;19.80;57.10;;;;;;5007852;28;19925;-53
2021/10/28 07:36:15;;;;;;;;;;;19.80;57.10;;;;;;5002893;28;19934;-54
2021/10/28 08:14:14;;;;;;;;;;;19.90;56.80;;;;;;5015049;28;19926;-56
2021/10/28 08:22:19;;;;;;;;;;;19.90;56.80;;;;;;5000178;28;19933;-52
2021/10/28 08:30:20;;;;;;;;;;;20.00;56.80;;;;;;5012633;28;19929;-53
2021/10/28 08:32:47;;;;;;;;;;;20.00;56.70;;;;;;5015802;28;19932;-55
2021/10/28 08:35:36;;;;;;;;;;;20.00;56.70;;;;;;5002201;28;19936;-54
2021/10/28 08:38:05;;;;;;;;;;;20.00;56.70;;;;;;4999951;28;19926;-55
2021/10/28 08:40:33;;;;;;;;;;;20.00;56.70;;;;;;5011755;28;19929;-53
2021/10/28 08:43:03;;;;;;;;;;;20.00;56.70;;;;;;5003974;28;20377;-55
2021/10/28 08:45:35;;;;;;;;;;;20.00;56.60;;;;;;5010821;28;19929;-53
2021/10/28 08:48:04;;;;;;;;;;;20.00;56.60;;;;;;5004794;28;19932;-54
2021/10/28 08:55:54;;;;;;;;;;;20.00;56.50;;;;;;5015199;28;19971;-53
2021/10/28 09:26:31;;;;;;;;;;;20.20;56.20;;;;;;5006273;28;19930;-53
2021/10/28 09:31:59;;;;;;;;;;;20.30;56.20;;;;;;5011017;28;19926;-52
2021/10/28 09:46:09;;;;;;;;;;;20.30;56.00;;;;;;4958828;28;19926;-50
2021/10/28 09:51:16;;;;;;;;;;;20.30;55.90;;;;;;4973224;28;19926;-52
2021/10/28 09:54:04;;;;;;;;;;;20.30;55.90;;;;;;4973207;28;20370;-51
2021/10/28 09:59:29;;;;;;;;;;;20.40;55.90;;;;;;4972953;28;19926;-52
2021/10/28 10:02:10;;;;;;;;;;;20.40;55.90;;;;;;4973039;28;19930;-49
2021/10/28 10:04:42;;;;;;;;;;;20.40;55.90;;;;;;4973056;28;19926;-53
2021/10/28 10:07:13;;;;;;;;;;;20.40;55.90;;;;;;4972950;28;20298;-52
2021/10/28 10:09:40;;;;;;;;;;;20.40;55.80;;;;;;4971852;28;20401;-53
2021/10/28 10:12:07;;;;;;;;;;;20.40;55.80;;;;;;4973063;28;19933;-49
2021/10/28 10:14:36;;;;;;;;;;;20.40;55.90;;;;;;4992294;28;20004;-50
2021/10/28 10:17:06;;;;;;;;;;;20.40;55.80;;;;;;5003641;28;19932;-49
2021/10/28 10:19:38;;;;;;;;;;;20.40;55.80;;;;;;4997929;28;19926;-48
2021/10/28 11:04:02;;;;;;;;;;;20.40;55.90;;;;;;4931274;29;20003;-49
2021/10/28 11:21:05;;;;;;;;;;;20.40;55.70;;;;;;4915321;29;19933;-55
2021/10/28 12:24:13;;;;;;;;;;;20.30;55.80;;;;;;4996969;28;19933;-53
2021/10/28 12:43:59;;;;;;;;;;;20.30;55.90;;;;;;4951571;28;19927;-52
2021/10/28 12:46:33;;;;;;;;;;;20.30;55.90;;;;;;4952673;28;19926;-50
2021/10/28 12:54:51;;;;;;;;;;;20.30;55.90;;;;;;4950993;28;20417;-52
2021/10/28 13:58:16;;;;;;;;;;;20.20;56.20;;;;;;4953895;28;19933;-52
2021/10/28 14:14:40;;;;;;;;;;;20.20;56.20;;;;;;4954056;28;19931;-52
2021/10/28 14:20:36;;;;;;;;;;;20.20;56.40;;;;;;5012903;28;19937;-49
2021/10/28 14:39:27;;;;;;;;;;;20.20;56.40;;;;;;5013539;28;19929;-53
2021/10/28 14:58:56;;;;;;;;;;;20.20;56.50;;;;;;4996793;28;19930;-50
2021/10/28 15:27:41;;;;;;;;;;;20.20;56.50;;;;;;4996908;28;19940;-51
2021/10/28 15:29:12;;;;;;;;;;;20.10;56.50;;;;;;4996462;28;19932;-51
2021/10/28 15:40:20;;;;;;;;;;;20.10;56.60;;;;;;5004627;28;19932;-54
2021/10/28 15:51:52;;;;;;;;;;;20.00;56.70;;;;;;5012604;28;19925;-52
2021/10/28 16:24:12;;;;;;;;;;;20.00;57.00;;;;;;5012463;28;19925;-48
2021/10/28 16:26:39;;;;;;;;;;;20.00;57.00;;;;;;5007867;28;20382;-49
2021/10/28 16:29:07;;;;;;;;;;;20.00;57.00;;;;;;4998431;28;20318;-54
2021/10/28 16:31:35;;;;;;;;;;;19.90;56.90;;;;;;5016099;28;19929;-51
2021/10/28 16:34:03;;;;;;;;;;;20.00;57.10;;;;;;5016164;28;19934;-53
2021/10/28 16:36:30;;;;;;;;;;;19.90;57.00;;;;;;5016231;28;20352;-49
2021/10/28 16:39:00;;;;;;;;;;;19.90;57.00;;;;;;5014875;28;19925;-52
2021/10/28 16:41:27;;;;;;;;;;;19.90;57.10;;;;;;4999008;28;19925;-50
2021/10/28 16:43:54;;;;;;;;;;;19.90;57.10;;;;;;5015919;28;20005;-51
2021/10/28 16:46:21;;;;;;;;;;;19.90;57.10;;;;;;5015329;28;19948;-50
2021/10/28 16:48:49;;;;;;;;;;;19.90;57.70;;;;;;5014483;28;19930;-51
2021/10/28 16:51:16;;;;;;;;;;;19.90;57.10;;;;;;4998346;28;19936;-48
2021/10/28 16:53:45;;;;;;;;;;;19.90;57.10;;;;;;4999283;28;19926;-48
2021/10/28 16:56:15;;;;;;;;;;;19.90;57.10;;;;;;4999272;28;19926;-49
2021/10/28 16:58:42;;;;;;;;;;;19.90;57.10;;;;;;4999447;28;19926;-48
2021/10/28 17:01:10;;;;;;;;;;;19.90;57.20;;;;;;4997291;28;19932;-49
2021/10/28 17:03:38;;;;;;;;;;;19.90;57.20;;;;;;5012270;28;20301;-50
2021/10/28 17:06:05;;;;;;;;;;;19.90;57.20;;;;;;5015298;28;19926;-50
2021/10/28 17:08:32;;;;;;;;;;;19.90;57.20;;;;;;5015509;28;19926;-47
2021/10/28 17:11:00;;;;;;;;;;;19.90;57.20;;;;;;5005588;28;19973;-53
2021/10/28 17:13:27;;;;;;;;;;;19.90;57.20;;;;;;4999144;28;19936;-54
2021/10/28 17:15:55;;;;;;;;;;;19.90;57.30;;;;;;5002456;28;20405;-53
2021/10/28 17:18:22;;;;;;;;;;;19.90;57.30;;;;;;5007682;28;19933;-54
2021/10/28 17:20:57;;;;;;;;;;;19.90;57.30;;;;;;5006211;28;19926;-53
2021/10/28 17:23:32;;;;;;;;;;;19.90;57.30;;;;;;5008446;28;19933;-50
2021/10/28 17:26:01;;;;;;;;;;;19.90;57.30;;;;;;5002723;28;19929;-51
2021/10/28 17:28:28;;;;;;;;;;;19.80;57.20;;;;;;5008996;28;19926;-53
2021/10/28 17:30:55;;;;;;;;;;;19.80;57.20;;;;;;4999384;28;20413;-53
2021/10/28 17:33:22;;;;;;;;;;;19.80;57.30;;;;;;5002892;28;20408;-49
2021/10/28 17:35:49;;;;;;;;;;;19.80;57.30;;;;;;5014748;28;19925;-50
2021/10/28 17:38:16;;;;;;;;;;;19.80;57.30;;;;;;5014669;28;20445;-54
2021/10/28 17:40:45;;;;;;;;;;;19.80;57.30;;;;;;5013249;28;19926;-52
2021/10/28 17:43:13;;;;;;;;;;;19.80;57.30;;;;;;5014622;28;23915;-52
2021/10/28 17:45:41;;;;;;;;;;;19.80;57.30;;;;;;5014622;28;19965;-54
2021/10/28 17:48:09;;;;;;;;;;;19.80;57.30;;;;;;4997582;28;19976;-52
2021/10/28 17:50:36;;;;;;;;;;;19.80;57.30;;;;;;5014603;28;20020;-53
2021/10/28 17:53:04;;;;;;;;;;;19.80;57.30;;;;;;5014711;28;19925;-54
2021/10/28 17:55:34;;;;;;;;;;;19.80;57.30;;;;;;5013581;28;19936;-53
2021/10/28 17:58:01;;;;;;;;;;;19.80;57.30;;;;;;5013355;28;19925;-49
2021/10/28 18:00:29;;;;;;;;;;;19.80;57.30;;;;;;5014350;28;20284;-49
2021/10/28 18:02:56;;;;;;;;;;;19.80;57.40;;;;;;4999426;28;19926;-49
2021/10/28 18:05:39;;;;;;;;;;;19.80;57.40;;;;;;5014073;28;20371;-52
2021/10/28 18:08:08;;;;;;;;;;;19.80;57.40;;;;;;4999201;28;19925;-50
2021/10/28 18:10:35;;;;;;;;;;;19.80;57.40;;;;;;4997977;28;19926;-49
2021/10/28 18:13:04;;;;;;;;;;;19.80;57.40;;;;;;4998348;28;19925;-54
2021/10/28 18:15:31;;;;;;;;;;;19.80;57.50;;;;;;5010823;28;19925;-52
2021/10/28 18:18:02;;;;;;;;;;;19.80;57.50;;;;;;4999433;28;19930;-50
2021/10/28 18:20:29;;;;;;;;;;;19.80;57.50;;;;;;5009593;28;20473;-53
2021/10/28 18:22:57;;;;;;;;;;;19.80;57.50;;;;;;5012857;28;19925;-55
2021/10/28 18:25:24;;;;;;;;;;;19.70;57.40;;;;;;5014244;28;19932;-50
2021/10/28 18:27:57;;;;;;;;;;;19.80;57.50;;;;;;5005471;28;19926;-49
2021/10/28 18:30:26;;;;;;;;;;;19.80;57.50;;;;;;4997743;28;19926;-49
2021/10/28 18:32:53;;;;;;;;;;;19.80;57.50;;;;;;4998143;28;19926;-51
2021/10/28 18:35:20;;;;;;;;;;;19.80;57.50;;;;;;5005135;28;19925;-54
2021/10/28 18:37:49;;;;;;;;;;;19.80;57.50;;;;;;5013498;28;20381;-49
2021/10/28 18:40:16;;;;;;;;;;;19.80;57.50;;;;;;5008153;28;19930;-53
2021/10/28 18:42:45;;;;;;;;;;;19.80;57.50;;;;;;5002129;28;19948;-48
2021/10/28 18:45:13;;;;;;;;;;;19.80;57.50;;;;;;5013338;28;19974;-51
2021/10/28 18:47:49;;;;;;;;;;;19.80;57.50;;;;;;5009638;28;19926;-52
2021/10/28 18:50:16;;;;;;;;;;;19.80;57.60;;;;;;4997320;28;19933;-50
2021/10/28 18:52:44;;;;;;;;;;;19.70;57.50;;;;;;4998688;28;19925;-50
2021/10/28 18:55:11;;;;;;;;;;;19.80;57.60;;;;;;5012097;28;19932;-51
2021/10/28 18:57:38;;;;;;;;;;;19.80;57.60;;;;;;5013263;28;20080;-50
2021/10/28 19:00:06;;;;;;;;;;;19.80;57.60;;;;;;5011442;28;19932;-54
2021/10/28 19:02:36;;;;;;;;;;;19.80;57.60;;;;;;4996388;28;19934;-53
2021/10/28 19:05:07;;;;;;;;;;;19.80;57.60;;;;;;5012870;28;19926;-54
2021/10/28 19:07:42;;;;;;;;;;;19.70;57.50;;;;;;4995898;28;19933;-51
2021/10/28 19:10:09;;;;;;;;;;;19.70;57.60;;;;;;5012460;28;19988;-54
2021/10/28 19:12:36;;;;;;;;;;;19.70;57.50;;;;;;5012210;28;19926;-54
2021/10/28 19:15:04;;;;;;;;;;;19.80;57.60;;;;;;5012564;28;19925;-53
2021/10/28 19:17:32;;;;;;;;;;;19.70;57.50;;;;;;4995884;28;19949;-52
2021/10/28 19:20:00;;;;;;;;;;;19.70;57.50;;;;;;5026932;28;19926;-51
2021/10/28 19:22:31;;;;;;;;;;;19.70;57.60;;;;;;4998387;28;20017;-54
2021/10/28 19:24:58;;;;;;;;;;;19.70;57.60;;;;;;5011486;28;19925;-50
2021/10/28 19:27:29;;;;;;;;;;;19.70;57.60;;;;;;5012700;28;19972;-51
2021/10/28 19:30:02;;;;;;;;;;;19.70;57.60;;;;;;5012741;28;19926;-50
2021/10/28 19:32:29;;;;;;;;;;;19.70;57.60;;;;;;5000154;28;19926;-48
2021/10/28 19:34:57;;;;;;;;;;;19.70;57.60;;;;;;4996583;28;19925;-51
2021/10/28 19:46:19;;;;;;;;;;;19.70;57.60;;;;;;4996718;28;19926;-51
2021/10/28 19:48:26;;;;;;;;;;;19.70;57.60;;;;;;5006230;28;19932;-53
2021/10/28 19:50:53;;;;;;;;;;;19.70;57.60;;;;;;5012618;28;20382;-51
2021/10/28 19:53:21;;;;;;;;;;;19.70;57.60;;;;;;5012520;28;19948;-54
2021/10/28 19:55:48;;;;;;;;;;;19.70;57.60;;;;;;4997923;28;19930;-53
2021/10/28 19:58:20;;;;;;;;;;;19.70;57.60;;;;;;5008701;28;19925;-51
2021/10/28 20:00:58;;;;;;;;;;;19.70;57.60;;;;;;5012446;28;19926;-49
2021/10/28 20:03:39;;;;;;;;;;;19.70;57.60;;;;;;5013169;28;19926;-54
2021/10/28 20:22:24;;;;;;;;;;;19.70;57.60;;;;;;5000207;28;19948;-51
2021/10/28 20:24:51;;;;;;;;;;;19.70;57.60;;;;;;5000219;28;20396;-53
2021/10/28 20:27:18;;;;;;;;;;;19.70;57.60;;;;;;5016236;28;19944;-55
2021/10/28 20:29:45;;;;;;;;;;;19.70;57.60;;;;;;4999120;28;19952;-54
2021/10/28 20:32:13;;;;;;;;;;;19.70;58.10;;;;;;4999191;28;19926;-51
2021/10/28 20:37:40;;;;;;;;;;;19.70;57.50;;;;;;4979196;28;19933;-52
2021/10/28 20:40:08;;;;;;;;;;;19.70;57.50;;;;;;4994252;28;20450;-53
2021/10/28 20:42:40;;;;;;;;;;;19.70;57.50;;;;;;4994595;28;19933;-53
2021/10/28 20:45:11;;;;;;;;;;;19.70;57.50;;;;;;4994586;28;19926;-54
2021/10/28 20:47:40;;;;;;;;;;;19.70;57.50;;;;;;4994226;28;19929;-51
2021/10/28 20:50:12;;;;;;;;;;;19.70;57.50;;;;;;4994099;28;19971;-52
2021/10/28 20:52:40;;;;;;;;;;;19.70;57.50;;;;;;4993911;28;19954;-49
2021/10/28 20:55:07;;;;;;;;;;;19.70;57.50;;;;;;4994015;28;19926;-51
2021/10/28 20:57:37;;;;;;;;;;;19.70;57.60;;;;;;5009386;28;19925;-49
2021/10/28 21:00:09;;;;;;;;;;;19.70;57.60;;;;;;4994674;28;19926;-52
2021/10/28 21:02:37;;;;;;;;;;;19.70;57.50;;;;;;4993600;28;19926;-50
2021/10/28 21:05:13;;;;;;;;;;;19.70;57.50;;;;;;4993908;28;19926;-52
2021/10/28 21:07:42;;;;;;;;;;;19.70;57.60;;;;;;4993514;28;19926;-52
2021/10/28 21:10:10;;;;;;;;;;;19.70;57.50;;;;;;4993501;28;19993;-53
2021/10/28 21:12:38;;;;;;;;;;;19.70;57.50;;;;;;4993823;28;19949;-52
2021/10/28 21:15:05;;;;;;;;;;;19.70;57.50;;;;;;4998315;28;19926;-52
2021/10/28 21:17:32;;;;;;;;;;;19.70;57.50;;;;;;5001582;28;20004;-49
2021/10/28 21:20:00;;;;;;;;;;;19.70;57.50;;;;;;4999033;28;19930;-49
2021/10/28 21:22:27;;;;;;;;;;;19.70;57.50;;;;;;4998883;28;19933;-50
2021/10/28 21:24:55;;;;;;;;;;;19.70;57.50;;;;;;4999379;28;19926;-49
2021/10/28 21:27:22;;;;;;;;;;;19.70;57.50;;;;;;4998925;28;19925;-51
2021/10/28 21:29:50;;;;;;;;;;;19.70;57.50;;;;;;4999181;28;19930;-49
2021/10/28 21:32:17;;;;;;;;;;;19.70;57.50;;;;;;4999111;28;19948;-50
2021/10/28 21:34:45;;;;;;;;;;;19.70;58.10;;;;;;5002537;28;19926;-49
2021/10/28 21:37:13;;;;;;;;;;;19.70;57.50;;;;;;5014107;28;19925;-52
2021/10/28 21:39:41;;;;;;;;;;;19.70;57.50;;;;;;5012606;28;19933;-54
2021/10/28 21:42:09;;;;;;;;;;;19.70;57.50;;;;;;5013807;28;19925;-52
2021/10/28 21:44:37;;;;;;;;;;;19.70;57.50;;;;;;5015020;28;19925;-54
2021/10/28 21:47:05;;;;;;;;;;;19.70;57.50;;;;;;5014991;28;20368;-49
2021/10/28 21:49:34;;;;;;;;;;;19.70;57.50;;;;;;5014963;28;19926;-54
2021/10/28 21:52:12;;;;;;;;;;;19.70;57.50;;;;;;4998081;28;19933;-54
2021/10/28 21:54:47;;;;;;;;;;;19.70;57.50;;;;;;4998413;28;20029;-52
2021/10/28 21:57:25;;;;;;;;;;;19.70;57.50;;;;;;4998275;28;20393;-53
2021/10/28 22:02:57;;;;;;;;;;;19.70;57.50;;;;;;5013475;28;20404;-54
2021/10/28 22:05:47;;;;;;;;;;;19.70;57.50;;;;;;4998268;28;20013;-54
2021/10/28 22:24:52;;;;;;;;;;;19.70;57.50;;;;;;5013730;28;20437;-53
2021/10/28 22:27:21;;;;;;;;;;;19.70;57.50;;;;;;4998669;28;19961;-53
2021/10/28 22:29:48;;;;;;;;;;;19.70;57.50;;;;;;4997738;28;20404;-53
2021/10/28 22:32:37;;;;;;;;;;;19.70;57.50;;;;;;5012853;28;19933;-48
2021/10/28 22:35:08;;;;;;;;;;;19.70;57.50;;;;;;5014010;28;19929;-54
2021/10/28 22:38:19;;;;;;;;;;;19.70;57.50;;;;;;5014074;28;19972;-50
2021/10/28 22:40:41;;;;;;;;;;;19.70;57.50;;;;;;5006237;28;19932;-52
2021/10/28 22:43:10;;;;;;;;;;;19.70;57.50;;;;;;5013840;28;20028;-52
2021/10/28 22:45:37;;;;;;;;;;;19.70;57.50;;;;;;4996048;28;19925;-51
2021/10/28 22:48:05;;;;;;;;;;;19.70;57.50;;;;;;5013071;28;20286;-53
2021/10/28 22:50:32;;;;;;;;;;;19.70;57.50;;;;;;4997789;28;19925;-53
2021/10/28 22:53:02;;;;;;;;;;;19.70;57.80;;;;;;5012479;28;19936;-51
2021/10/28 22:55:34;;;;;;;;;;;19.70;57.50;;;;;;4998802;28;19933;-53
2021/10/28 23:03:47;;;;;;;;;;;19.70;57.50;;;;;;5000229;28;19926;-53
2021/10/28 23:22:10;;;;;;;;;;;19.70;57.50;;;;;;4999006;28;19933;-54
2021/10/28 23:24:37;;;;;;;;;;;19.70;57.50;;;;;;5012153;28;19925;-50
2021/10/28 23:27:05;;;;;;;;;;;19.70;57.50;;;;;;5011672;28;19925;-54
2021/10/28 23:29:32;;;;;;;;;;;19.70;57.50;;;;;;5012605;28;19933;-51
2021/10/28 23:31:59;;;;;;;;;;;19.70;57.50;;;;;;5012661;28;19925;-53
2021/10/28 23:34:27;;;;;;;;;;;19.70;57.50;;;;;;5011863;28;19926;-54
2021/10/28 23:36:55;;;;;;;;;;;19.70;57.50;;;;;;5012703;28;19926;-53
2021/10/28 23:39:22;;;;;;;;;;;19.70;57.50;;;;;;5012797;28;19956;-55
2021/10/28 23:41:49;;;;;;;;;;;19.70;58.10;;;;;;5011869;28;19925;-51
2021/10/28 23:44:16;;;;;;;;;;;19.70;57.50;;;;;;4997866;28;19925;-53
2021/10/28 23:46:44;;;;;;;;;;;19.70;57.50;;;;;;4996894;28;19925;-52
2021/10/28 23:49:11;;;;;;;;;;;19.70;57.50;;;;;;4996588;28;19926;-51
2021/10/28 23:51:38;;;;;;;;;;;19.70;57.50;;;;;;4996263;28;19926;-51
2021/10/28 23:54:05;;;;;;;;;;;19.70;57.50;;;;;;5007378;28;20279;-48
2021/10/28 23:56:32;;;;;;;;;;;19.70;57.50;;;;;;5012677;28;19932;-54
2021/10/28 23:58:59;;;;;;;;;;;19.70;57.50;;;;;;5003455;28;19925;-52
